Time;durP1;ratioP1;P1;durP2;ratioP2;P2;SDS_P1;SDS_P2;PMS_P1;PMS_P2;Temp;Humidity;BMP_temperature;BMP_pressure;BME280_temperature;BME280_humidity;BME280_pressure;Samples;Min_cycle;Max_cycle;Signal;HPM_P1;HPM_P2
2023/12/09 00:02:00;;;;;;;34.95;23.85;;;;;;;6.82;84.06;100478.69;4118976;28;20038;-65
2023/12/09 00:04:02;;;;;;;31.05;22.33;;;;;;;6.95;84.10;100484.22;4117719;28;20034;-65
2023/12/09 00:06:07;;;;;;;28.65;20.58;;;;;;;6.85;83.74;100485.69;4124079;28;20045;-65
2023/12/09 00:08:10;;;;;;;29.13;22.17;;;;;;;6.82;84.13;100493.34;4117353;28;20043;-64
2023/12/09 00:10:14;;;;;;;31.08;21.10;;;;;;;6.80;84.64;100494.97;4111753;28;20094;-65
2023/12/09 00:12:17;;;;;;;29.15;19.73;;;;;;;6.79;84.37;100499.28;4119170;28;21434;-64
2023/12/09 00:14:21;;;;;;;28.58;20.55;;;;;;;6.81;84.81;100499.31;4121843;28;20073;-65
2023/12/09 00:16:24;;;;;;;27.80;18.52;;;;;;;6.84;84.45;100495.97;4117298;28;20127;-64
2023/12/09 00:18:27;;;;;;;25.13;18.40;;;;;;;6.80;85.00;100497.56;4119801;28;20035;-64
2023/12/09 00:20:31;;;;;;;28.20;19.15;;;;;;;6.79;85.08;100501.88;4121308;28;20428;-64
2023/12/09 00:22:35;;;;;;;30.48;21.92;;;;;;;6.82;84.60;100503.69;4117391;28;20128;-65
2023/12/09 00:24:37;;;;;;;23.50;16.95;;;;;;;6.82;85.08;100501.97;4124489;28;20090;-65
2023/12/09 00:26:40;;;;;;;28.10;20.25;;;;;;;6.84;84.79;100501.13;4120787;28;20505;-65
2023/12/09 00:28:43;;;;;;;37.00;21.90;;;;;;;6.86;84.81;100500.31;4106947;28;20043;-64
2023/12/09 00:30:46;;;;;;;24.17;16.88;;;;;;;6.87;84.68;100503.81;4117390;28;20157;-64
2023/12/09 00:32:50;;;;;;;28.88;20.13;;;;;;;6.87;84.83;100502.09;4119824;28;20070;-63
2023/12/09 00:34:53;;;;;;;29.17;20.00;;;;;;;6.96;84.79;100507.53;4111382;28;20070;-63
2023/12/09 00:36:56;;;;;;;31.02;23.00;;;;;;;7.02;83.91;100511.13;4120420;28;20035;-64
2023/12/09 00:39:00;;;;;;;30.50;20.55;;;;;;;6.95;84.36;100510.97;4116482;28;20101;-64
2023/12/09 00:41:03;;;;;;;30.30;20.60;;;;;;;6.90;84.58;100509.06;4100397;28;20152;-63
2023/12/09 00:43:06;;;;;;;29.08;19.90;;;;;;;6.88;84.53;100516.78;4117845;28;20461;-64
2023/12/09 00:45:10;;;;;;;32.20;20.88;;;;;;;6.89;84.96;100513.38;4123531;28;20050;-64
2023/12/09 00:47:13;;;;;;;27.50;20.13;;;;;;;6.88;84.76;100524.53;4119399;28;20405;-63
2023/12/09 00:49:16;;;;;;;30.73;20.98;;;;;;;6.89;84.97;100517.63;4118883;28;20038;-63
2023/12/09 00:51:19;;;;;;;30.75;19.27;;;;;;;6.89;85.01;100523.72;4095329;28;20035;-64
2023/12/09 00:53:22;;;;;;;32.25;20.75;;;;;;;6.90;84.96;100528.03;4105566;28;20046;-64
2023/12/09 00:55:27;;;;;;;31.33;22.45;;;;;;;6.92;84.43;100528.06;4121372;28;20038;-64
2023/12/09 00:57:29;;;;;;;35.15;24.73;;;;;;;6.96;84.49;100522.16;4114969;28;20476;-64
2023/12/09 00:59:33;;;;;;;31.08;21.75;;;;;;;7.01;84.19;100519.72;4111636;28;20030;-64
2023/12/09 01:01:36;;;;;;;28.60;20.67;;;;;;;6.93;84.14;100517.78;4096889;28;20119;-64
2023/12/09 01:03:39;;;;;;;29.58;21.45;;;;;;;6.91;84.62;100524.63;4119346;28;20099;-65
2023/12/09 01:05:42;;;;;;;30.83;21.88;;;;;;;6.91;84.78;100527.19;4120705;28;20039;-65
2023/12/09 01:07:45;;;;;;;29.58;21.38;;;;;;;6.89;84.45;100520.22;4118689;28;20039;-65
2023/12/09 01:09:47;;;;;;;32.95;23.10;;;;;;;6.89;84.75;100521.13;4114319;28;20191;-65
2023/12/09 01:11:52;;;;;;;29.00;22.00;;;;;;;6.89;84.75;100528.88;4120912;28;20046;-65
2023/12/09 01:13:56;;;;;;;33.78;21.48;;;;;;;6.90;84.95;100530.59;4121556;28;20045;-65
2023/12/09 01:15:59;;;;;;;32.22;22.48;;;;;;;6.92;84.87;100530.66;4116853;28;20039;-65
2023/12/09 01:18:02;;;;;;;30.70;21.38;;;;;;;6.94;84.94;100529.00;4104786;28;20043;-65
2023/12/09 01:20:07;;;;;;;29.90;21.13;;;;;;;6.94;84.57;100532.44;4104555;28;20474;-65
2023/12/09 01:22:10;;;;;;;;;;;;;;;6.84;84.85;100535.59;4121378;28;20062;-65
2023/12/09 01:24:13;;;;;;;28.55;20.70;;;;;;;6.88;85.17;100547.78;4120695;28;20370;-65
2023/12/09 01:26:16;;;;;;;30.38;21.73;;;;;;;6.89;85.05;100533.16;4108930;28;20062;-65
2023/12/09 01:28:20;;;;;;;29.40;21.15;;;;;;;6.92;84.87;100538.41;4121722;28;20062;-65
2023/12/09 01:30:24;;;;;;;32.70;21.08;;;;;;;6.94;85.37;100537.63;4120778;28;20134;-65
2023/12/09 01:32:27;;;;;;;29.65;19.63;;;;;;;6.92;84.69;100541.88;4122767;28;20046;-65
2023/12/09 01:34:30;;;;;;;31.35;21.48;;;;;;;6.94;84.76;100540.22;4115098;28;20030;-65
2023/12/09 01:36:33;;;;;;;34.08;22.00;;;;;;;6.94;84.84;100541.94;4124951;28;20034;-65
2023/12/09 01:38:36;;;;;;;31.90;21.17;;;;;;;6.95;84.86;100539.38;4120368;28;20066;-65
2023/12/09 01:40:39;;;;;;;29.38;21.52;;;;;;;6.95;85.08;100544.56;4115322;28;20504;-65
2023/12/09 01:42:42;;;;;;;31.33;22.10;;;;;;;6.96;85.28;100548.00;4120202;28;20078;-65
2023/12/09 01:44:47;;;;;;;27.58;20.67;;;;;;;6.96;85.08;100543.69;4117799;28;20038;-65
2023/12/09 01:46:50;;;;;;;37.38;21.13;;;;;;;6.97;85.25;100545.47;4120178;28;20038;-65
2023/12/09 01:48:53;;;;;;;30.02;21.90;;;;;;;7.01;84.60;100553.31;4118012;28;20133;-65
2023/12/09 01:50:56;;;;;;;33.33;21.67;;;;;;;7.01;84.64;100550.72;4123909;28;20051;-65
2023/12/09 01:52:59;;;;;;;24.20;17.70;;;;;;;6.98;84.54;100552.41;4117578;28;20043;-65
2023/12/09 01:55:03;;;;;;;26.95;18.65;;;;;;;6.97;84.56;100550.63;4102798;28;20172;-65
2023/12/09 01:57:06;;;;;;;31.05;21.13;;;;;;;6.97;84.99;100545.47;4120804;28;20037;-65
2023/12/09 01:59:10;;;;;;;28.40;20.17;;;;;;;6.97;84.97;100548.06;4117787;28;20049;-65
2023/12/09 02:01:14;;;;;;;28.00;20.25;;;;;;;6.97;84.89;100548.06;4119193;28;20412;-66
2023/12/09 02:03:18;;;;;;;32.75;22.23;;;;;;;7.01;84.58;100543.88;4098062;28;20139;-66
2023/12/09 02:05:21;;;;;;;30.33;21.48;;;;;;;7.03;84.20;100542.19;4081598;29;20059;-65
2023/12/09 02:07:24;;;;;;;27.95;20.33;;;;;;;7.07;83.78;100540.59;4118198;28;20500;-65
2023/12/09 02:09:27;;;;;;;27.45;19.90;;;;;;;7.04;83.69;100543.97;4118393;28;20043;-67
2023/12/09 02:11:40;;;;;;;25.92;17.35;;;;;;;7.00;84.30;100544.69;4115636;28;20031;-66
2023/12/09 02:13:53;;;;;;;30.60;20.85;;;;;;;6.98;84.43;100542.06;4119929;28;20073;-66
2023/12/09 02:16:04;;;;;;;31.63;20.75;;;;;;;6.98;84.38;100543.78;4119473;28;20042;-66
2023/12/09 02:18:09;;;;;;;30.08;20.13;;;;;;;6.96;84.63;100548.88;4119763;28;20117;-66
2023/12/09 02:20:11;;;;;;;28.35;19.60;;;;;;;6.97;84.62;100544.59;4120879;28;20400;-67
2023/12/09 02:22:14;;;;;;;27.13;18.45;;;;;;;6.98;85.10;100536.03;4122417;28;20049;-66
2023/12/09 02:24:17;;;;;;;28.10;19.73;;;;;;;7.01;85.05;100540.38;4103422;28;20047;-66
2023/12/09 02:26:24;;;;;;;29.27;21.52;;;;;;;6.98;85.18;100536.88;4107162;28;22710;-66
2023/12/09 02:28:28;;;;;;;30.13;22.15;;;;;;;7.03;84.56;100528.41;4100262;28;20043;-66
2023/12/09 02:30:41;;;;;;;27.60;19.00;;;;;;;7.04;84.48;100519.78;4122616;28;20069;-66
2023/12/09 02:32:45;;;;;;;27.50;20.83;;;;;;;6.97;84.64;100514.44;4103824;28;20102;-67
2023/12/09 02:34:50;;;;;;;30.23;19.35;;;;;;;6.98;85.03;100516.22;4118363;28;20057;-66
2023/12/09 02:36:53;;;;;;;;;;;;;;;6.87;85.21;100515.00;4114338;28;20054;-65
2023/12/09 02:38:58;;;;;;;26.77;18.40;;;;;;;6.88;85.61;100515.88;4100465;28;19926;-65
2023/12/09 02:41:03;;;;;;;28.08;19.15;;;;;;;6.90;85.71;100509.94;4119965;28;20034;-65
2023/12/09 02:43:06;;;;;;;;;;;;;;;6.89;85.60;100504.72;4119153;28;20039;-64
2023/12/09 02:45:10;;;;;;;29.48;21.50;;;;;;;6.91;85.89;100498.78;4117177;28;19922;-64
2023/12/09 02:47:14;;;;;;;28.20;19.05;;;;;;;6.95;85.63;100492.88;4119171;28;20054;-65
2023/12/09 02:49:17;;;;;;;26.10;19.13;;;;;;;6.95;85.70;100490.28;4118769;28;20030;-64
2023/12/09 02:51:20;;;;;;;26.92;19.95;;;;;;;6.97;85.68;100485.16;4115778;28;20034;-65
2023/12/09 02:53:23;;;;;;;25.27;19.67;;;;;;;6.98;85.68;100482.63;4117024;28;20046;-65
2023/12/09 02:55:27;;;;;;;25.20;17.48;;;;;;;7.01;85.18;100481.84;4113106;28;20038;-66
2023/12/09 02:57:31;;;;;;;27.25;19.00;;;;;;;7.02;85.14;100473.22;4112255;28;20105;-64
2023/12/09 02:59:34;;;;;;;27.80;19.15;;;;;;;6.97;85.60;100473.09;4118192;28;20046;-65
2023/12/09 03:01:37;;;;;;;25.45;16.70;;;;;;;6.99;85.50;100466.28;4119764;28;20046;-64
2023/12/09 03:03:40;;;;;;;20.48;14.43;;;;;;;7.01;85.12;100468.00;4114519;28;20418;-65
2023/12/09 03:05:43;;;;;;;27.45;19.65;;;;;;;7.01;85.36;100462.84;4104811;28;20115;-65
2023/12/09 03:07:46;;;;;;;26.98;17.83;;;;;;;6.99;85.40;100453.34;4118545;28;20038;-65
2023/12/09 03:09:49;;;;;;;22.85;15.00;;;;;;;7.02;85.65;100454.25;4120126;28;20111;-64
2023/12/09 03:11:52;;;;;;;32.72;20.02;;;;;;;7.02;85.44;100457.72;4104397;28;20066;-64
2023/12/09 03:13:56;;;;;;;21.20;14.98;;;;;;;7.04;85.59;100460.34;4107100;28;20037;-64
2023/12/09 03:16:00;;;;;;;36.55;21.33;;;;;;;7.05;85.04;100460.38;4113546;28;20389;-64
2023/12/09 03:18:03;;;;;;;29.38;18.63;;;;;;;7.05;85.30;100455.22;4121261;28;20504;-64
2023/12/09 03:20:08;;;;;;;28.38;18.05;;;;;;;7.07;85.37;100458.75;4123647;28;20052;-65
2023/12/09 03:22:11;;;;;;;24.80;17.98;;;;;;;7.08;85.15;100464.78;4125545;28;20097;-65
2023/12/09 03:24:14;;;;;;;26.92;19.00;;;;;;;7.08;84.74;100449.25;4088282;29;20098;-65
2023/12/09 03:26:19;;;;;;;26.50;19.35;;;;;;;7.10;84.81;100456.25;4116015;28;20059;-65
2023/12/09 03:28:22;;;;;;;29.23;18.75;;;;;;;7.08;84.75;100459.59;4122088;28;20516;-64
2023/12/09 03:30:26;;;;;;;29.45;20.15;;;;;;;7.10;85.09;100457.97;4120403;28;20547;-64
2023/12/09 03:32:29;;;;;;;28.58;18.30;;;;;;;7.07;85.22;100455.28;4126421;28;20125;-65
2023/12/09 03:34:32;;;;;;;26.67;18.30;;;;;;;7.16;84.42;100452.94;4109988;28;20038;-65
2023/12/09 03:36:35;;;;;;;25.83;16.90;;;;;;;7.14;84.54;100457.19;4122173;28;20102;-65
2023/12/09 03:38:38;;;;;;;24.13;17.00;;;;;;;7.13;84.82;100455.47;4125335;28;20539;-65
2023/12/09 03:40:41;;;;;;;29.00;19.08;;;;;;;7.11;84.35;100455.41;4119681;28;20448;-64
2023/12/09 03:42:43;;;;;;;26.45;17.40;;;;;;;7.14;85.06;100457.19;4121246;28;20073;-64
2023/12/09 03:44:47;;;;;;;29.77;19.23;;;;;;;7.10;85.17;100457.97;4118350;28;20424;-64
2023/12/09 03:46:51;;;;;;;23.58;16.67;;;;;;;7.11;84.65;100460.59;4123103;28;20031;-64
2023/12/09 03:48:54;;;;;;;30.45;18.85;;;;;;;7.11;84.61;100457.09;4122938;28;20069;-66
2023/12/09 03:50:57;;;;;;;26.02;17.75;;;;;;;7.11;84.76;100454.50;4121045;28;20125;-64
2023/12/09 03:53:00;;;;;;;28.65;18.90;;;;;;;7.08;84.93;100450.16;4124568;28;20055;-64
2023/12/09 03:55:03;;;;;;;25.42;16.80;;;;;;;7.12;85.47;100451.97;4107324;28;20122;-64
2023/12/09 03:57:06;;;;;;;24.92;16.90;;;;;;;7.14;85.15;100449.44;4123671;28;20457;-64
2023/12/09 03:59:09;;;;;;;24.55;17.15;;;;;;;7.15;85.14;100440.84;4119557;28;20139;-64
2023/12/09 04:01:12;;;;;;;28.90;18.73;;;;;;;7.15;85.10;100456.34;4122946;28;20042;-64
2023/12/09 04:03:18;;;;;;;30.00;15.82;;;;;;;7.13;85.26;100439.94;4124201;28;20042;-64
2023/12/09 04:05:22;;;;;;;21.80;15.88;;;;;;;7.15;84.68;100441.75;4122269;28;20046;-64
2023/12/09 04:07:25;;;;;;;18.23;13.55;;;;;;;7.12;85.29;100445.94;4127182;28;20039;-64
2023/12/09 04:09:27;;;;;;;24.63;17.98;;;;;;;7.12;85.01;100448.53;4125569;28;20570;-64
2023/12/09 04:11:30;;;;;;;25.90;16.30;;;;;;;7.12;85.30;100444.22;4119157;28;20030;-64
2023/12/09 04:13:33;;;;;;;31.15;15.60;;;;;;;7.15;85.08;100443.44;4120687;28;20034;-64
2023/12/09 04:15:38;;;;;;;24.38;13.40;;;;;;;7.13;85.01;100438.22;4122100;28;20069;-64
2023/12/09 04:17:40;;;;;;;23.10;15.45;;;;;;;7.10;84.73;100443.31;4116810;28;20122;-67
2023/12/09 04:19:45;;;;;;;23.50;15.45;;;;;;;7.08;84.83;100441.50;4116420;28;20125;-65
2023/12/09 04:21:48;;;;;;;27.55;15.60;;;;;;;7.07;85.02;100442.38;4120522;28;20034;-64
2023/12/09 04:23:51;;;;;;;25.02;14.38;;;;;;;7.13;84.56;100443.41;4122627;28;20046;-64
2023/12/09 04:25:54;;;;;;;27.67;16.77;;;;;;;7.11;85.00;100439.00;4121332;28;20042;-64
2023/12/09 04:27:57;;;;;;;23.92;14.73;;;;;;;7.05;84.77;100455.22;4126205;28;20038;-63
2023/12/09 04:30:00;;;;;;;19.70;12.80;;;;;;;7.06;85.11;100448.34;4104943;28;20039;-64
2023/12/09 04:32:03;;;;;;;24.13;14.15;;;;;;;7.05;85.07;100459.53;4106424;28;20047;-64
2023/12/09 04:34:06;;;;;;;19.75;13.23;;;;;;;7.04;84.77;100450.91;4124726;28;20507;-64
2023/12/09 04:36:11;;;;;;;24.48;14.00;;;;;;;7.11;85.05;100452.81;4118358;28;20069;-64
2023/12/09 04:38:14;;;;;;;24.67;14.75;;;;;;;7.14;84.98;100457.19;4122162;28;20531;-64
2023/12/09 04:40:17;;;;;;;21.75;12.77;;;;;;;7.15;84.13;100446.91;4116968;28;20162;-65
2023/12/09 04:42:19;;;;;;;24.92;14.60;;;;;;;7.12;84.80;100456.28;4124724;28;20552;-64
2023/12/09 04:44:24;;;;;;;23.00;14.30;;;;;;;7.16;84.38;100455.53;4120944;28;20039;-65
2023/12/09 04:46:29;;;;;;;26.67;14.27;;;;;;;7.12;84.56;100446.81;4122218;28;20509;-65
2023/12/09 04:48:32;;;;;;;29.70;12.77;;;;;;;7.12;84.72;100449.38;4119589;28;20481;-65
2023/12/09 04:50:35;;;;;;;21.33;12.63;;;;;;;7.13;84.70;100445.13;4120329;28;20049;-65
2023/12/09 04:52:40;;;;;;;20.52;12.65;;;;;;;7.23;84.14;100444.53;4099281;28;20079;-65
2023/12/09 04:54:43;;;;;;;26.60;15.30;;;;;;;7.11;84.77;100442.50;4120944;28;20405;-62
2023/12/09 04:56:46;;;;;;;25.55;13.60;;;;;;;7.08;84.62;100431.16;4118574;28;20469;-64
2023/12/09 04:58:49;;;;;;;24.95;12.43;;;;;;;7.18;84.38;100430.59;4121128;28;20038;-64
2023/12/09 05:00:52;;;;;;;23.00;13.55;;;;;;;7.12;84.73;100425.25;4116924;28;20077;-65
2023/12/09 05:02:55;;;;;;;25.98;13.93;;;;;;;7.13;85.10;100427.00;4105460;28;20050;-64
2023/12/09 05:04:58;;;;;;;20.23;13.13;;;;;;;7.19;84.48;100419.41;4123158;28;20105;-65
2023/12/09 05:07:01;;;;;;;23.77;14.02;;;;;;;7.13;84.90;100422.72;4121648;28;20069;-64
2023/12/09 05:09:05;;;;;;;24.85;14.68;;;;;;;7.14;85.36;100428.75;4119887;28;20046;-65
2023/12/09 05:11:09;;;;;;;25.13;14.95;;;;;;;7.14;85.05;100426.16;4118978;28;20066;-65
2023/12/09 05:13:12;;;;;;;32.53;15.82;;;;;;;7.16;84.98;100424.50;4119892;28;20082;-64
2023/12/09 05:15:15;;;;;;;25.05;14.13;;;;;;;7.17;85.50;100421.09;4085667;29;20071;-64
2023/12/09 05:17:18;;;;;;;28.65;15.90;;;;;;;7.20;85.16;100413.44;4121557;28;20034;-65
2023/12/09 05:19:21;;;;;;;22.90;13.60;;;;;;;7.15;84.86;100415.91;4121457;28;20047;-65
2023/12/09 05:21:24;;;;;;;19.15;12.43;;;;;;;7.16;85.44;100412.44;4122421;28;20042;-66
2023/12/09 05:23:38;;;;;;;22.27;12.32;;;;;;;7.16;84.86;100412.44;4116064;28;20073;-65
2023/12/09 05:25:44;;;;;;;28.98;16.00;;;;;;;7.18;85.21;100407.31;4117746;28;20031;-65
2023/12/09 05:27:46;;;;;;;26.65;16.48;;;;;;;7.18;85.40;100399.56;4100274;28;20074;-65
2023/12/09 05:29:49;;;;;;;26.83;16.40;;;;;;;7.20;85.29;100397.91;4108436;28;20113;-65
2023/12/09 05:31:52;;;;;;;28.50;16.23;;;;;;;7.15;85.19;100396.91;4117545;28;20125;-64
2023/12/09 05:33:54;;;;;;;29.33;15.18;;;;;;;7.17;85.39;100403.00;4101080;28;20074;-64
2023/12/09 05:35:57;;;;;;;27.52;16.05;;;;;;;7.19;85.07;100403.91;4117421;28;20046;-64
2023/12/09 05:38:00;;;;;;;23.73;16.15;;;;;;;7.24;85.40;100401.44;4103813;28;20031;-63
2023/12/09 05:40:04;;;;;;;29.75;18.48;;;;;;;7.25;85.29;100404.06;4119841;28;20042;-64
2023/12/09 05:42:08;;;;;;;27.00;17.20;;;;;;;7.27;85.27;100404.09;4123619;28;20684;-64
2023/12/09 05:44:12;;;;;;;25.88;17.52;;;;;;;7.33;84.97;100399.97;4118510;28;20401;-64
2023/12/09 05:46:19;;;;;;;27.88;18.80;;;;;;;7.25;85.11;100401.47;4120996;28;20042;-64
2023/12/09 05:48:22;;;;;;;25.08;16.85;;;;;;;7.24;85.00;100402.34;4120449;28;20058;-64
2023/12/09 05:50:25;;;;;;;35.65;21.13;;;;;;;7.26;85.31;100400.66;4121677;28;20090;-64
2023/12/09 05:52:28;;;;;;;24.38;17.30;;;;;;;7.25;85.22;100396.31;4097602;28;20157;-64
2023/12/09 05:54:31;;;;;;;28.95;17.85;;;;;;;7.23;85.02;100392.81;4122321;28;20440;-64
2023/12/09 05:56:35;;;;;;;32.45;19.70;;;;;;;7.24;85.37;100392.00;4122742;28;20038;-64
2023/12/09 05:58:38;;;;;;;29.75;18.63;;;;;;;7.25;85.19;100391.13;4097757;28;20086;-64
2023/12/09 06:00:41;;;;;;;35.15;18.45;;;;;;;7.29;85.67;100390.38;4115735;28;20137;-64
2023/12/09 06:02:44;;;;;;;29.85;20.00;;;;;;;7.27;85.67;100380.84;4121712;28;20035;-65
2023/12/09 06:04:47;;;;;;;30.63;19.15;;;;;;;7.27;85.06;100378.25;4115783;28;20465;-64
2023/12/09 06:06:50;;;;;;;35.25;20.67;;;;;;;7.26;85.55;100372.22;4123763;28;20096;-64
2023/12/09 06:08:53;;;;;;;37.38;22.23;;;;;;;7.24;85.70;100373.00;4123355;28;20042;-64
2023/12/09 06:10:56;;;;;;;32.58;22.05;;;;;;;7.22;85.80;100370.38;4104929;28;20039;-64
2023/12/09 06:12:58;;;;;;;22.70;16.02;;;;;;;7.24;85.27;100371.31;4122035;28;20378;-64
2023/12/09 06:15:03;;;;;;;31.67;20.58;;;;;;;7.23;85.68;100377.31;4102807;28;20066;-65
2023/12/09 06:17:06;;;;;;;28.90;19.95;;;;;;;7.23;85.69;100372.13;4116952;28;20092;-64
2023/12/09 06:19:09;;;;;;;28.60;20.15;;;;;;;7.25;85.15;100380.78;4113487;28;20409;-64
2023/12/09 06:21:19;;;;;;;23.88;17.35;;;;;;;7.25;85.56;100383.38;4112701;28;20031;-65
2023/12/09 06:23:22;;;;;;;32.88;18.48;;;;;;;7.25;85.63;100375.63;4118047;28;20102;-65
2023/12/09 06:25:25;;;;;;;33.28;20.65;;;;;;;7.25;85.24;100374.75;4118814;28;20047;-65
2023/12/09 06:27:28;;;;;;;27.92;17.17;;;;;;;7.21;85.68;100368.63;4116658;28;20041;-65
2023/12/09 06:29:31;;;;;;;25.90;18.23;;;;;;;7.26;85.31;100361.88;4117168;28;20038;-65
2023/12/09 06:31:35;;;;;;;29.15;17.45;;;;;;;7.30;85.07;100361.13;4109318;28;20066;-65
2023/12/09 06:33:38;;;;;;;34.60;19.08;;;;;;;7.27;85.35;100357.56;4118039;28;20142;-64
2023/12/09 06:35:42;;;;;;;20.42;13.85;;;;;;;7.22;85.30;100365.22;4110936;28;20520;-65
2023/12/09 06:37:44;;;;;;;31.05;17.20;;;;;;;7.24;84.99;100371.31;4114427;28;20094;-64
2023/12/09 06:39:48;;;;;;;28.17;18.25;;;;;;;7.26;85.74;100361.00;4119929;28;20053;-64
2023/12/09 06:41:50;;;;;;;25.85;17.08;;;;;;;7.30;85.21;100363.72;4114466;28;20063;-64
2023/12/09 06:43:53;;;;;;;33.08;20.40;;;;;;;7.28;85.14;100344.66;4119553;28;20153;-64
2023/12/09 06:45:56;;;;;;;31.60;18.55;;;;;;;7.29;84.93;100338.66;4097411;28;20500;-64
2023/12/09 06:48:00;;;;;;;23.17;15.48;;;;;;;7.27;84.99;100342.94;4117500;28;20485;-64
2023/12/09 06:50:03;;;;;;;26.35;17.33;;;;;;;7.29;84.98;100338.66;4118689;28;20046;-64
2023/12/09 06:52:06;;;;;;;28.52;17.42;;;;;;;7.24;84.88;100342.88;4116471;28;20452;-64
2023/12/09 06:54:10;;;;;;;27.55;16.20;;;;;;;7.26;84.61;100348.94;4112978;28;20070;-64
2023/12/09 06:56:19;;;;;;;25.38;17.58;;;;;;;7.21;84.60;100353.09;4108437;28;20042;-64
2023/12/09 06:58:22;;;;;;;24.85;16.65;;;;;;;7.12;84.92;100358.91;4117474;28;21018;-64
2023/12/09 07:01:16;;;;;;;35.03;17.80;;;;;;;7.14;84.92;100353.78;4102923;28;20045;-64
2023/12/09 07:03:21;;;;;;;29.27;19.13;;;;;;;7.12;84.97;100353.72;4116178;28;20475;-64
2023/12/09 07:05:23;;;;;;;24.85;16.98;;;;;;;7.11;85.01;100358.88;4122322;28;20066;-64
2023/12/09 07:07:26;;;;;;;26.38;16.80;;;;;;;7.06;84.85;100363.06;4118652;28;20129;-64
2023/12/09 07:09:29;;;;;;;26.60;17.00;;;;;;;7.03;85.17;100370.72;4120132;28;20039;-64
2023/12/09 07:11:32;;;;;;;29.75;19.23;;;;;;;7.06;85.21;100375.97;4124612;28;20042;-64
2023/12/09 07:13:35;;;;;;;30.83;17.73;;;;;;;7.10;84.65;100375.22;4115888;28;20057;-64
2023/12/09 07:15:38;;;;;;;24.08;15.60;;;;;;;7.04;84.82;100375.03;4120769;28;20212;-64
2023/12/09 07:17:41;;;;;;;26.65;16.63;;;;;;;7.11;84.11;100366.63;4117702;28;20035;-65
2023/12/09 07:19:46;;;;;;;25.50;16.83;;;;;;;7.05;84.58;100376.81;4122371;28;20408;-64
2023/12/09 07:21:51;;;;;;;29.00;18.25;;;;;;;7.02;84.48;100371.56;4114363;28;20043;-64
2023/12/09 07:23:53;;;;;;;23.23;15.90;;;;;;;7.00;84.37;100374.09;4119691;28;20039;-64
2023/12/09 07:25:56;;;;;;;24.10;16.13;;;;;;;6.97;84.99;100379.19;4115152;28;20047;-64
2023/12/09 07:27:59;;;;;;;27.65;19.15;;;;;;;6.98;84.71;100371.47;4102528;28;20098;-64
2023/12/09 07:30:02;;;;;;;28.90;17.98;;;;;;;7.02;84.81;100377.59;4116271;28;20125;-65
2023/12/09 07:32:06;;;;;;;26.35;16.67;;;;;;;7.01;84.72;100380.13;4114086;28;20507;-64
2023/12/09 07:34:09;;;;;;;31.67;15.50;;;;;;;6.99;84.87;100378.41;4116440;28;20066;-64
2023/12/09 07:36:14;;;;;;;26.27;15.35;;;;;;;6.99;85.08;100373.25;4103744;28;20101;-64
2023/12/09 07:38:17;;;;;;;19.63;14.93;;;;;;;6.98;85.17;100386.97;4112587;28;20035;-64
2023/12/09 07:40:20;;;;;;;25.77;16.00;;;;;;;7.05;85.03;100375.09;4116609;28;20034;-64
2023/12/09 07:42:23;;;;;;;27.58;15.40;;;;;;;7.10;85.00;100367.47;4120257;28;20047;-64
2023/12/09 07:44:27;;;;;;;23.92;16.30;;;;;;;7.08;84.97;100366.53;4120009;28;20493;-64
2023/12/09 07:46:29;;;;;;;30.02;15.27;;;;;;;7.04;84.75;100369.88;4118467;28;20030;-64
2023/12/09 07:48:32;;;;;;;24.40;15.85;;;;;;;7.11;84.93;100370.09;4117322;28;20130;-64
2023/12/09 07:50:35;;;;;;;27.25;17.55;;;;;;;7.08;84.89;100371.72;4115179;28;20042;-64
2023/12/09 07:52:39;;;;;;;25.45;15.85;;;;;;;7.19;85.51;100372.88;4117320;28;20129;-65
2023/12/09 07:54:41;;;;;;;;;;;;;;;7.15;85.37;100368.47;4107164;28;20501;-64
2023/12/09 07:56:44;;;;;;;31.02;16.35;;;;;;;7.14;85.37;100359.84;4115493;28;19922;-64
2023/12/09 07:58:47;;;;;;;24.70;15.07;;;;;;;7.13;85.55;100355.50;4113177;28;20053;-64
2023/12/09 08:00:50;;;;;;;28.52;15.85;;;;;;;7.18;85.45;100353.03;4103724;28;20047;-64
2023/12/09 08:02:52;;;;;;;22.75;13.77;;;;;;;7.16;85.92;100349.53;4110438;28;20102;-64
2023/12/09 08:04:55;;;;;;;24.42;15.20;;;;;;;7.20;85.87;100342.72;4115968;28;20456;-64
2023/12/09 08:06:57;;;;;;;31.35;16.17;;;;;;;7.22;85.87;100344.53;4122790;28;20047;-64
2023/12/09 08:09:02;;;;;;;24.90;16.10;;;;;;;7.32;85.53;100346.50;4117368;28;20125;-64
2023/12/09 08:11:05;;;;;;;31.67;18.10;;;;;;;7.26;85.42;100345.50;4112541;28;20046;-64
2023/12/09 08:13:09;;;;;;;26.63;15.02;;;;;;;7.30;85.52;100335.25;4108719;28;20046;-64
2023/12/09 08:15:13;;;;;;;23.42;15.52;;;;;;;7.33;85.57;100334.47;4103755;28;20035;-64
2023/12/09 08:17:16;;;;;;;24.23;13.53;;;;;;;7.32;85.06;100336.16;4120236;28;20497;-64
2023/12/09 08:19:19;;;;;;;24.17;14.70;;;;;;;7.39;85.65;100332.03;4102693;28;20035;-64
2023/12/09 08:21:24;;;;;;;24.67;15.55;;;;;;;7.43;85.60;100335.56;4105227;28;20050;-64
2023/12/09 08:23:27;;;;;;;32.83;18.13;;;;;;;7.45;85.17;100337.34;4083831;29;20036;-64
2023/12/09 08:25:31;;;;;;;24.98;15.50;;;;;;;7.48;85.65;100336.56;4116052;28;20051;-64
2023/12/09 08:27:34;;;;;;;30.73;15.45;;;;;;;7.49;85.99;100343.47;4119099;28;20046;-64
2023/12/09 08:29:37;;;;;;;26.30;14.50;;;;;;;7.62;85.58;100337.78;4121086;28;20481;-64
2023/12/09 08:31:40;;;;;;;22.48;13.60;;;;;;;7.55;85.35;100329.81;4116677;28;20094;-64
2023/12/09 08:33:43;;;;;;;27.17;14.45;;;;;;;7.54;85.56;100330.66;4103916;28;20585;-64
2023/12/09 08:35:46;;;;;;;22.17;15.13;;;;;;;7.57;85.81;100329.00;4115297;28;20108;-64
2023/12/09 08:37:49;;;;;;;24.60;14.80;;;;;;;7.57;85.64;100322.97;4114551;28;20209;-64
2023/12/09 08:39:57;;;;;;;27.00;16.00;;;;;;;7.61;85.46;100332.56;4116397;28;20489;-64
2023/12/09 08:42:01;;;;;;;35.85;16.50;;;;;;;7.63;85.59;100321.38;4118367;28;20386;-64
2023/12/09 08:44:05;;;;;;;21.35;12.52;;;;;;;7.57;85.58;100318.66;4118985;28;20049;-64
2023/12/09 08:46:07;;;;;;;23.45;14.25;;;;;;;7.62;85.64;100309.31;4120051;28;20057;-63
2023/12/09 08:48:10;;;;;;;28.45;15.80;;;;;;;7.64;85.59;100305.03;4120695;28;20070;-63
2023/12/09 08:50:14;;;;;;;27.38;13.88;;;;;;;7.67;85.54;100293.91;4121433;28;20060;-63
2023/12/09 08:52:27;;;;;;;22.42;12.95;;;;;;;7.67;85.52;100291.31;4117617;28;20085;-64
2023/12/09 08:54:30;;;;;;;19.65;13.45;;;;;;;7.71;85.84;100287.06;4116230;28;20046;-64
2023/12/09 08:56:33;;;;;;;21.50;13.48;;;;;;;7.77;85.65;100287.19;4120686;28;20540;-64
2023/12/09 08:58:37;;;;;;;28.55;14.55;;;;;;;7.81;85.48;100286.44;4120881;28;20141;-64
2023/12/09 09:00:40;;;;;;;22.17;12.68;;;;;;;7.80;85.48;100289.88;4117205;28;20497;-64
2023/12/09 09:02:43;;;;;;;26.65;14.48;;;;;;;7.81;85.59;100299.38;4118301;28;20073;-65
2023/12/09 09:04:46;;;;;;;20.52;13.60;;;;;;;7.87;85.44;100294.34;4116120;28;20489;-64
2023/12/09 09:06:49;;;;;;;21.60;13.05;;;;;;;7.90;85.15;100293.53;4116039;28;20042;-64
2023/12/09 09:08:52;;;;;;;22.73;13.55;;;;;;;7.92;85.05;100292.72;4112601;28;20109;-64
2023/12/09 09:10:55;;;;;;;21.45;12.35;;;;;;;7.95;84.93;100287.63;4121140;28;20092;-64
2023/12/09 09:12:57;;;;;;;24.95;14.52;;;;;;;7.93;85.03;100284.13;4115432;28;20575;-64
2023/12/09 09:15:01;;;;;;;26.52;13.88;;;;;;;7.89;84.83;100287.50;4116551;28;20532;-64
2023/12/09 09:17:09;;;;;;;22.52;12.20;;;;;;;7.84;85.13;100281.31;4099623;28;20074;-64
2023/12/09 09:19:13;;;;;;;25.42;14.63;;;;;;;7.86;85.14;100274.47;4116774;28;20074;-64
2023/12/09 09:21:16;;;;;;;23.33;12.90;;;;;;;7.86;85.09;100272.75;4118139;28;20066;-64
2023/12/09 09:23:19;;;;;;;25.50;15.40;;;;;;;7.92;85.41;100264.25;4118312;28;20488;-64
2023/12/09 09:25:22;;;;;;;20.75;13.10;;;;;;;7.99;84.99;100265.28;4100174;28;20047;-64
2023/12/09 09:27:25;;;;;;;29.05;14.05;;;;;;;8.01;84.83;100259.28;4117049;28;20074;-64
2023/12/09 09:29:28;;;;;;;22.10;13.00;;;;;;;8.04;84.50;100256.78;4112256;28;20039;-64
2023/12/09 09:31:32;;;;;;;24.38;13.88;;;;;;;8.04;84.61;100261.06;4116761;28;20043;-64